Time;durP1;ratioP1;P1;durP2;ratioP2;P2;SDS_P1;SDS_P2;PMS_P1;PMS_P2;Temp;Humidity;BMP_temperature;BMP_pressure;BME280_temperature;BME280_humidity;BME280_pressure;Samples;Min_cycle;Max_cycle;Signal;HPM_P1;HPM_P2
2023/09/17 00:02:25;;;;;;;9.90;7.35;;;21.30;99.90;;;;;;5053871;28;20040;-80
2023/09/17 00:04:51;;;;;;;11.73;7.20;;;21.20;99.90;;;;;;5049788;28;20566;-81
2023/09/17 00:07:19;;;;;;;11.10;7.45;;;21.10;99.90;;;;;;5048679;28;20039;-80
2023/09/17 00:09:47;;;;;;;13.32;8.75;;;21.10;99.90;;;;;;5067365;28;20098;-81
2023/09/17 00:12:15;;;;;;;9.15;7.80;;;21.10;99.90;;;;;;5051044;28;20054;-81
2023/09/17 00:14:41;;;;;;;14.20;8.32;;;21.10;99.90;;;;;;5049084;28;20028;-80
2023/09/17 00:17:11;;;;;;;9.88;7.47;;;21.10;99.90;;;;;;5064836;28;20025;-80
2023/09/17 00:19:37;;;;;;;9.88;7.40;;;21.10;99.90;;;;;;5071091;28;20048;-79
2023/09/17 00:22:04;;;;;;;10.27;7.97;;;21.10;99.90;;;;;;5049367;28;20032;-80
2023/09/17 00:24:29;;;;;;;12.77;7.57;;;21.10;99.90;;;;;;5055102;28;20119;-80
2023/09/17 00:26:55;;;;;;;15.00;6.97;;;21.10;99.90;;;;;;5050104;28;20120;-82
2023/09/17 00:29:23;;;;;;;10.73;7.30;;;21.00;99.90;;;;;;5067557;28;20032;-79
2023/09/17 00:31:51;;;;;;;16.90;8.93;;;20.90;99.90;;;;;;5048678;28;20118;-81
2023/09/17 00:34:17;;;;;;;15.02;10.10;;;20.80;99.90;;;;;;5048919;28;20040;-81
2023/09/17 00:36:45;;;;;;;13.05;10.55;;;20.70;99.90;;;;;;5063858;28;20036;-81
2023/09/17 00:39:10;;;;;;;13.68;10.57;;;20.50;99.90;;;;;;5066166;28;20024;-80
2023/09/17 00:41:36;;;;;;;15.48;10.43;;;20.50;99.90;;;;;;5050842;28;20044;-81
2023/09/17 00:44:02;;;;;;;17.65;11.70;;;20.40;99.90;;;;;;5051041;28;20048;-81
2023/09/17 00:46:31;;;;;;;16.77;12.75;;;20.30;99.90;;;;;;5068218;28;20091;-81
2023/09/17 00:48:58;;;;;;;16.85;12.43;;;20.30;99.90;;;;;;5049485;28;20032;-81
2023/09/17 00:51:26;;;;;;;18.50;13.00;;;20.20;99.90;;;;;;5068345;28;20082;-82
2023/09/17 00:53:58;;;;;;;18.05;13.25;;;20.20;99.90;;;;;;5049530;28;20033;-81
2023/09/17 00:56:26;;;;;;;22.42;15.57;;;20.20;99.90;;;;;;5047415;28;20039;-82
2023/09/17 00:58:52;;;;;;;26.73;15.05;;;20.20;99.90;;;;;;5066092;28;20078;-82
2023/09/17 01:01:20;;;;;;;18.63;14.65;;;20.20;99.90;;;;;;5048584;28;20120;-81
2023/09/17 01:03:46;;;;;;;22.95;14.95;;;20.10;99.90;;;;;;5064394;28;20028;-80
2023/09/17 01:06:13;;;;;;;24.55;14.75;;;20.10;99.90;;;;;;5048155;28;20040;-81
2023/09/17 01:08:41;;;;;;;22.05;14.90;;;20.10;99.90;;;;;;5049262;28;20032;-81
2023/09/17 01:11:09;;;;;;;22.92;14.68;;;20.00;99.90;;;;;;5048650;28;20032;-79
2023/09/17 01:13:39;;;;;;;22.83;15.10;;;19.90;99.90;;;;;;5049349;28;20024;-80
2023/09/17 01:16:05;;;;;;;22.40;15.57;;;19.90;99.90;;;;;;5047208;28;20025;-81
2023/09/17 01:18:32;;;;;;;20.55;15.73;;;19.90;99.90;;;;;;5068028;28;20028;-78
2023/09/17 01:21:17;;;;;;;29.15;17.92;;;19.80;99.90;;;;;;5063987;28;21769;-80
2023/09/17 01:23:54;;;;;;;25.58;17.17;;;19.80;99.90;;;;;;5048526;28;20048;-82
2023/09/17 01:26:30;;;;;;;27.05;18.00;;;19.80;99.90;;;;;;5083287;27;20390;-79
2023/09/17 01:29:00;;;;;;;29.85;17.35;;;19.80;99.90;;;;;;5079615;28;20032;-80
2023/09/17 01:31:27;;;;;;;26.65;17.77;;;19.80;99.90;;;;;;5085720;28;20042;-78
2023/09/17 01:33:53;;;;;;;26.58;18.85;;;19.80;99.90;;;;;;5082439;28;20119;-80
2023/09/17 01:36:24;;;;;;;26.02;17.00;;;19.80;99.90;;;;;;5080684;28;20622;-81
2023/09/17 01:38:58;;;;;;;28.92;19.10;;;19.80;99.90;;;;;;5087970;28;20185;-81
2023/09/17 01:41:27;;;;;;;31.52;19.73;;;19.70;99.90;;;;;;5085129;28;20032;-80
2023/09/17 01:43:54;;;;;;;29.15;18.05;;;19.70;99.90;;;;;;5082137;28;20033;-80
2023/09/17 01:46:22;;;;;;;35.28;19.98;;;19.80;99.90;;;;;;5077381;28;20039;-80
2023/09/17 01:48:49;;;;;;;27.10;18.40;;;19.80;99.90;;;;;;5082714;28;20032;-81
2023/09/17 01:51:16;;;;;;;29.17;19.08;;;19.80;99.90;;;;;;5081091;28;20033;-80
2023/09/17 01:53:42;;;;;;;29.10;18.88;;;19.80;99.90;;;;;;5078999;28;20123;-80
2023/09/17 01:56:08;;;;;;;33.20;20.48;;;19.80;99.90;;;;;;5082653;28;20039;-80
2023/09/17 01:58:33;;;;;;;33.72;20.73;;;19.80;99.90;;;;;;5083573;28;20325;-80
2023/09/17 02:00:59;;;;;;;32.28;20.02;;;19.80;99.90;;;;;;5078580;28;20087;-81
2023/09/17 02:03:26;;;;;;;35.25;20.35;;;19.80;99.90;;;;;;5078920;28;20064;-80
2023/09/17 02:05:51;;;;;;;32.10;20.42;;;19.80;99.90;;;;;;5080689;28;20040;-81
2023/09/17 02:08:17;;;;;;;33.67;20.88;;;19.90;99.90;;;;;;5084011;28;20134;-80
2023/09/17 02:10:44;;;;;;;31.52;17.60;;;19.80;99.90;;;;;;5083726;28;20028;-80
2023/09/17 02:13:12;;;;;;;29.00;18.88;;;19.80;99.90;;;;;;5082326;28;20456;-80
2023/09/17 02:15:38;;;;;;;28.25;18.60;;;19.70;99.90;;;;;;5083613;28;20035;-80
2023/09/17 02:18:04;;;;;;;28.80;19.55;;;19.70;99.90;;;;;;5090300;28;20215;-82
2023/09/17 02:20:33;;;;;;;29.00;19.77;;;19.70;99.90;;;;;;5084588;28;20039;-80
2023/09/17 02:22:58;;;;;;;31.48;20.83;;;19.70;99.90;;;;;;5083536;28;20519;-80
2023/09/17 02:25:24;;;;;;;30.10;20.30;;;19.70;99.90;;;;;;5096475;28;20039;-81
2023/09/17 02:27:50;;;;;;;30.92;21.50;;;19.70;99.90;;;;;;5088478;28;20119;-81
2023/09/17 02:30:17;;;;;;;36.13;22.05;;;19.70;99.90;;;;;;5084228;28;20115;-79
2023/09/17 02:32:43;;;;;;;36.33;21.50;;;19.70;99.90;;;;;;5078673;28;20056;-81
2023/09/17 02:35:12;;;;;;;32.28;21.55;;;19.70;99.90;;;;;;5088175;28;20036;-81
2023/09/17 02:37:37;;;;;;;32.55;21.00;;;19.70;99.90;;;;;;5066909;28;20032;-81
2023/09/17 02:40:08;;;;;;;34.90;21.95;;;19.70;99.90;;;;;;5068364;28;20460;-79
2023/09/17 02:42:35;;;;;;;35.17;21.85;;;19.70;99.90;;;;;;5061796;28;20457;-81
2023/09/17 02:45:04;;;;;;;32.03;21.10;;;19.70;99.90;;;;;;5065331;28;20028;-81
2023/09/17 02:47:34;;;;;;;27.15;19.42;;;19.70;99.90;;;;;;5066574;28;20025;-81
2023/09/17 02:50:00;;;;;;;25.30;18.30;;;19.70;99.90;;;;;;5066289;28;20077;-81
2023/09/17 02:52:26;;;;;;;27.10;19.73;;;19.80;99.90;;;;;;5065347;28;20092;-81
2023/09/17 02:54:55;;;;;;;35.33;20.58;;;19.60;99.90;;;;;;5064510;28;20024;-81
2023/09/17 02:57:21;;;;;;;35.03;21.58;;;19.60;99.90;;;;;;5073729;28;20057;-81
2023/09/17 02:59:49;;;;;;;34.03;20.77;;;19.50;99.90;;;;;;5083944;28;20071;-80
2023/09/17 03:02:17;;;;;;;43.40;21.90;;;19.60;99.90;;;;;;5066248;28;20036;-82
2023/09/17 03:04:45;;;;;;;46.58;23.65;;;19.50;99.90;;;;;;5071227;28;20033;-82
2023/09/17 03:07:11;;;;;;;48.20;23.27;;;19.50;99.90;;;;;;5064609;28;20024;-84
2023/09/17 03:09:38;;;;;;;71.32;27.58;;;19.50;99.90;;;;;;5063423;28;20020;-81
2023/09/17 03:12:04;;;;;;;43.92;23.48;;;19.50;99.90;;;;;;5066716;28;20612;-82
2023/09/17 03:14:30;;;;;;;75.15;27.88;;;19.50;99.90;;;;;;5078246;28;20103;-84
2023/09/17 03:16:56;;;;;;;51.38;24.42;;;19.60;99.90;;;;;;5067430;28;20432;-82
2023/09/17 03:19:22;;;;;;;41.67;24.17;;;19.60;99.90;;;;;;5062707;28;20036;-84
2023/09/17 03:21:50;;;;;;;38.58;23.10;;;19.50;99.90;;;;;;5063683;28;20639;-82
2023/09/17 03:24:16;;;;;;;38.88;22.98;;;19.40;99.90;;;;;;5068256;28;21611;-83
2023/09/17 03:26:44;;;;;;;50.92;25.73;;;19.40;99.90;;;;;;5076576;28;20033;-83
2023/09/17 03:29:10;;;;;;;58.70;26.20;;;19.30;99.90;;;;;;5071467;28;20031;-81
2023/09/17 03:31:39;;;;;;;43.78;26.02;;;19.40;99.90;;;;;;5081529;28;20089;-82
2023/09/17 03:34:04;;;;;;;54.80;27.00;;;19.40;99.90;;;;;;5083326;28;20403;-83
2023/09/17 03:36:30;;;;;;;72.07;28.33;;;19.40;99.90;;;;;;5074249;28;20883;-81
2023/09/17 03:39:00;;;;;;;52.80;25.88;;;19.40;99.90;;;;;;5064497;28;20071;-82
2023/09/17 03:41:25;;;;;;;56.00;25.48;;;19.40;99.90;;;;;;5062212;28;20064;-83
2023/09/17 03:43:55;;;;;;;49.75;25.88;;;19.40;99.90;;;;;;5067707;28;20063;-79
2023/09/17 03:46:21;;;;;;;51.00;24.38;;;19.40;99.90;;;;;;5063221;28;20020;-80
2023/09/17 03:48:47;;;;;;;67.00;27.38;;;19.40;99.90;;;;;;5065837;28;20029;-83
2023/09/17 03:51:17;;;;;;;71.95;27.48;;;19.40;99.90;;;;;;5065357;28;20412;-81
2023/09/17 03:53:43;;;;;;;75.55;29.80;;;19.40;99.90;;;;;;5075542;28;20032;-80
2023/09/17 03:56:11;;;;;;;70.10;27.88;;;19.40;99.90;;;;;;5072428;28;20135;-81
2023/09/17 03:58:39;;;;;;;62.90;29.13;;;19.40;99.90;;;;;;5066710;28;20089;-82
2023/09/17 04:01:08;;;;;;;93.22;31.58;;;19.40;99.90;;;;;;5073573;28;20025;-82
2023/09/17 04:03:34;;;;;;;98.72;32.75;;;19.40;99.90;;;;;;5081432;28;20357;-81
2023/09/17 04:06:03;;;;;;;65.95;29.92;;;19.40;99.90;;;;;;5061943;28;20121;-83
2023/09/17 04:08:29;;;;;;;87.57;29.80;;;19.40;99.90;;;;;;5065785;28;20028;-83
2023/09/17 04:10:55;;;;;;;67.18;26.65;;;19.30;99.90;;;;;;5068237;28;20081;-83
2023/09/17 04:13:20;;;;;;;85.30;28.73;;;19.40;99.90;;;;;;5065966;28;20163;-81
2023/09/17 04:15:47;;;;;;;78.63;29.88;;;19.40;99.90;;;;;;5062429;28;20318;-81
2023/09/17 04:18:15;;;;;;;46.90;25.90;;;19.40;99.90;;;;;;5065519;28;20043;-81
2023/09/17 04:20:40;;;;;;;80.78;28.92;;;19.40;99.90;;;;;;5064940;28;20036;-81
2023/09/17 04:23:09;;;;;;;67.97;27.92;;;19.40;99.90;;;;;;5063358;28;20865;-83
2023/09/17 04:25:35;;;;;;;57.88;26.55;;;19.40;99.90;;;;;;5065115;28;20025;-82
2023/09/17 04:28:04;;;;;;;60.33;27.13;;;19.30;99.90;;;;;;5067576;28;20400;-83
2023/09/17 04:30:35;;;;;;;58.78;25.85;;;19.30;99.90;;;;;;5067464;28;20036;-82
2023/09/17 04:33:03;;;;;;;65.43;27.65;;;19.20;99.90;;;;;;5061113;28;20029;-82
2023/09/17 04:35:33;;;;;;;54.03;25.02;;;19.20;99.90;;;;;;5063346;28;20119;-82
2023/09/17 04:38:01;;;;;;;48.70;25.55;;;19.10;99.90;;;;;;5066963;28;20035;-83
2023/09/17 04:40:29;;;;;;;63.35;27.92;;;19.10;99.90;;;;;;5062439;28;20052;-82
2023/09/17 04:42:55;;;;;;;64.78;28.42;;;19.00;99.90;;;;;;5062906;28;20414;-83
2023/09/17 04:45:35;;;;;;;54.58;28.33;;;19.00;99.90;;;;;;5065959;28;20052;-80
2023/09/17 04:48:01;;;;;;;89.30;32.55;;;18.90;99.90;;;;;;5072800;28;20031;-83
2023/09/17 04:50:27;;;;;;;61.10;28.10;;;19.00;99.90;;;;;;5065564;28;20017;-82
2023/09/17 04:52:53;;;;;;;94.97;34.05;;;19.00;99.90;;;;;;5067674;28;20917;-81
2023/09/17 04:55:18;;;;;;;84.03;30.83;;;19.00;99.90;;;;;;5061478;28;20090;-82
2023/09/17 04:57:46;;;;;;;93.25;30.88;;;19.00;99.90;;;;;;5063897;28;20063;-82
2023/09/17 05:00:12;;;;;;;69.80;29.92;;;19.00;99.90;;;;;;5071244;28;20033;-82
2023/09/17 05:02:39;;;;;;;85.88;30.73;;;19.00;99.90;;;;;;5061444;28;20041;-80
2023/09/17 05:05:10;;;;;;;60.45;27.30;;;19.00;99.90;;;;;;5064367;28;20040;-84
2023/09/17 05:07:39;;;;;;;71.82;29.15;;;19.00;99.90;;;;;;5065307;28;20076;-83
2023/09/17 05:10:07;;;;;;;65.78;27.73;;;18.90;99.90;;;;;;5066054;28;20028;-82
2023/09/17 05:12:33;;;;;;;94.35;31.30;;;18.90;99.90;;;;;;5067442;28;20028;-83
2023/09/17 05:14:58;;;;;;;52.33;27.00;;;18.90;99.90;;;;;;5067751;28;20032;-83
2023/09/17 05:17:26;;;;;;;47.83;24.13;;;18.80;99.90;;;;;;5067794;28;20763;-83
2023/09/17 05:19:52;;;;;;;71.10;27.27;;;18.80;99.90;;;;;;5067489;28;20029;-82
2023/09/17 05:22:20;;;;;;;61.38;27.90;;;18.80;99.90;;;;;;5065408;28;20050;-83
2023/09/17 05:24:45;;;;;;;70.18;28.45;;;18.80;99.90;;;;;;5064558;28;20050;-81
2023/09/17 05:27:13;;;;;;;44.28;25.13;;;18.80;99.90;;;;;;5068425;28;20040;-83
2023/09/17 05:29:42;;;;;;;64.70;27.13;;;18.80;99.90;;;;;;5062682;28;20038;-84
2023/09/17 05:32:07;;;;;;;80.32;29.52;;;18.80;99.90;;;;;;5070875;28;20024;-81
2023/09/17 05:34:33;;;;;;;75.75;28.08;;;18.80;99.90;;;;;;5065463;28;20047;-83
2023/09/17 05:37:01;;;;;;;62.67;27.95;;;18.80;99.90;;;;;;5063282;28;20132;-82
2023/09/17 05:39:27;;;;;;;61.90;28.60;;;18.80;99.90;;;;;;5079819;28;20452;-82
2023/09/17 05:41:55;;;;;;;67.53;29.13;;;18.80;99.90;;;;;;5063635;28;20025;-82
2023/09/17 05:44:20;;;;;;;66.32;28.42;;;18.80;99.90;;;;;;5062082;28;20051;-84
2023/09/17 05:46:46;;;;;;;65.13;27.83;;;18.80;99.90;;;;;;5061050;28;20457;-82
2023/09/17 05:49:13;;;;;;;54.88;28.65;;;18.80;99.90;;;;;;5080280;28;20973;-83
2023/09/17 05:51:41;;;;;;;57.83;27.20;;;18.90;99.90;;;;;;5063962;28;20031;-82
2023/09/17 05:54:07;;;;;;;66.78;29.67;;;18.90;99.90;;;;;;5063718;28;20033;-84
2023/09/17 05:56:33;;;;;;;59.60;30.95;;;18.90;99.90;;;;;;5073165;28;20039;-84
2023/09/17 05:58:59;;;;;;;49.83;28.25;;;18.90;99.90;;;;;;5064466;28;20039;-80
2023/09/17 06:01:27;;;;;;;56.10;31.02;;;19.00;99.90;;;;;;5062447;28;20031;-82
2023/09/17 06:03:54;;;;;;;54.45;27.70;;;19.00;99.90;;;;;;5074832;28;20036;-84
2023/09/17 06:06:20;;;;;;;66.65;29.10;;;18.90;99.90;;;;;;5065129;28;20056;-83
2023/09/17 06:08:48;;;;;;;60.03;32.03;;;19.00;99.90;;;;;;5064162;28;21702;-84
2023/09/17 06:11:14;;;;;;;56.30;31.23;;;19.00;99.90;;;;;;5065830;28;20040;-84
2023/09/17 06:13:39;;;;;;;54.63;31.75;;;19.10;99.90;;;;;;5070765;28;20222;-83
2023/09/17 06:16:05;;;;;;;43.08;27.08;;;19.10;99.90;;;;;;5066725;28;20032;-81
2023/09/17 06:18:32;;;;;;;44.28;26.08;;;19.10;99.90;;;;;;5067634;28;20056;-83
2023/09/17 06:20:59;;;;;;;43.83;26.08;;;19.10;99.90;;;;;;5071257;28;20024;-84
2023/09/17 06:23:27;;;;;;;43.05;25.15;;;19.10;99.90;;;;;;5086396;28;20462;-82
2023/09/17 06:25:53;;;;;;;46.10;24.05;;;19.10;99.90;;;;;;5085310;28;20106;-83
2023/09/17 06:28:20;;;;;;;38.45;24.23;;;19.10;99.90;;;;;;5070100;28;20036;-80
2023/09/17 06:30:46;;;;;;;43.17;24.52;;;19.20;99.90;;;;;;5068214;28;20031;-84
2023/09/17 06:33:12;;;;;;;52.72;26.52;;;19.10;99.90;;;;;;5069403;28;20114;-83
2023/09/17 06:35:38;;;;;;;44.00;24.63;;;19.10;99.90;;;;;;5067342;28;21656;-83
2023/09/17 06:38:03;;;;;;;38.40;23.08;;;19.20;99.90;;;;;;5067623;28;20106;-83
2023/09/17 06:40:31;;;;;;;40.63;22.92;;;19.20;99.90;;;;;;5069354;28;20031;-83
2023/09/17 06:42:57;;;;;;;40.80;23.15;;;19.20;99.90;;;;;;5076082;28;20028;-82
2023/09/17 06:45:23;;;;;;;40.15;22.65;;;19.20;99.90;;;;;;5064778;28;20089;-83
2023/09/17 06:47:49;;;;;;;39.28;21.20;;;19.30;99.90;;;;;;5065602;28;20111;-85
2023/09/17 06:50:17;;;;;;;33.20;20.67;;;19.30;99.90;;;;;;5067428;28;20086;-83
2023/09/17 06:52:44;;;;;;;32.80;20.20;;;19.30;99.90;;;;;;5068870;28;20575;-82
2023/09/17 06:55:10;;;;;;;30.35;20.80;;;19.30;99.90;;;;;;5067466;28;20036;-82
2023/09/17 06:57:36;;;;;;;32.70;19.92;;;19.30;99.90;;;;;;5077466;28;20036;-84
2023/09/17 07:00:01;;;;;;;32.35;21.10;;;19.30;99.90;;;;;;5069762;28;20086;-83
2023/09/17 07:02:29;;;;;;;31.73;20.63;;;19.30;99.90;;;;;;5067618;28;20045;-82
2023/09/17 07:05:00;;;;;;;30.70;20.08;;;19.40;99.90;;;;;;5066977;28;20033;-84
2023/09/17 07:07:28;;;;;;;29.40;18.40;;;19.40;99.90;;;;;;5064019;28;20036;-83
2023/09/17 07:09:56;;;;;;;29.52;16.08;;;19.40;99.90;;;;;;5065298;28;20030;-83
2023/09/17 07:12:21;;;;;;;23.70;15.38;;;19.40;99.90;;;;;;5065278;28;20159;-83
2023/09/17 07:14:47;;;;;;;20.15;15.20;;;19.50;99.90;;;;;;5074506;28;20115;-80
2023/09/17 07:17:16;;;;;;;15.25;11.63;;;19.40;99.90;;;;;;5082219;28;20417;-83
2023/09/17 07:19:41;;;;;;;17.15;10.90;;;19.50;99.90;;;;;;5065536;28;20020;-84
2023/09/17 07:22:11;;;;;;;17.27;11.90;;;19.50;99.90;;;;;;5066278;28;20028;-84
2023/09/17 07:24:39;;;;;;;14.90;10.45;;;19.50;99.90;;;;;;5063710;28;20048;-82
2023/09/17 07:27:05;;;;;;;12.50;10.00;;;19.50;99.90;;;;;;5067668;28;20116;-81
2023/09/17 07:29:30;;;;;;;14.70;10.13;;;19.50;99.90;;;;;;5064590;28;20120;-82
2023/09/17 07:31:56;;;;;;;14.10;9.52;;;19.50;99.90;;;;;;5065354;28;20476;-81
2023/09/17 07:34:23;;;;;;;14.93;9.80;;;19.60;99.90;;;;;;5065359;28;20144;-80
2023/09/17 07:36:48;;;;;;;16.42;9.95;;;19.60;99.90;;;;;;5063976;28;20027;-80
2023/09/17 07:39:16;;;;;;;13.30;9.32;;;19.60;99.90;;;;;;5065930;28;20028;-82
2023/09/17 07:41:44;;;;;;;14.18;10.02;;;19.60;99.90;;;;;;5072891;28;20469;-82
2023/09/17 07:44:10;;;;;;;12.85;9.48;;;19.60;99.90;;;;;;5067703;28;20044;-83
2023/09/17 07:46:35;;;;;;;13.38;9.88;;;19.60;99.90;;;;;;5064090;28;20462;-83
2023/09/17 07:49:01;;;;;;;11.77;9.10;;;19.60;99.90;;;;;;5063053;28;20150;-81
2023/09/17 07:51:27;;;;;;;10.95;8.57;;;19.60;99.90;;;;;;5068082;28;20439;-83
2023/09/17 07:53:52;;;;;;;13.75;9.43;;;19.70;99.90;;;;;;5067829;28;20036;-82
2023/09/17 07:56:18;;;;;;;13.65;7.78;;;19.70;99.90;;;;;;5064215;28;20066;-81
2023/09/17 07:58:44;;;;;;;12.77;8.85;;;19.70;99.90;;;;;;5063267;28;20033;-84
2023/09/17 08:01:11;;;;;;;12.70;7.97;;;19.80;99.90;;;;;;5066617;28;20119;-82
2023/09/17 08:03:37;;;;;;;9.68;7.82;;;19.80;99.90;;;;;;5065425;28;20040;-83
2023/09/17 08:06:03;;;;;;;10.02;7.45;;;19.80;99.90;;;;;;5067201;28;20028;-83
2023/09/17 08:08:29;;;;;;;8.80;7.03;;;19.80;99.90;;;;;;5072909;28;20035;-80
2023/09/17 08:10:54;;;;;;;11.32;7.68;;;19.90;99.90;;;;;;5064184;28;20933;-83
2023/09/17 08:13:22;;;;;;;11.02;8.40;;;19.90;99.90;;;;;;5066890;28;20028;-80
2023/09/17 08:15:50;;;;;;;11.80;7.88;;;19.90;99.90;;;;;;5071875;28;20154;-83
2023/09/17 08:18:17;;;;;;;9.98;7.18;;;20.00;99.90;;;;;;5066126;28;20104;-82
2023/09/17 08:20:45;;;;;;;9.23;6.97;;;20.00;99.90;;;;;;5081956;28;20028;-83
2023/09/17 08:23:10;;;;;;;9.80;7.07;;;20.00;99.90;;;;;;5074859;28;20063;-83
2023/09/17 08:25:36;;;;;;;7.15;5.75;;;20.10;99.90;;;;;;5062985;28;21640;-84
2023/09/17 08:28:02;;;;;;;9.85;7.00;;;20.10;99.90;;;;;;5066235;28;20024;-83
2023/09/17 08:30:28;;;;;;;8.15;6.45;;;20.10;99.90;;;;;;5067045;28;20028;-83
2023/09/17 08:32:54;;;;;;;8.05;5.68;;;20.10;99.90;;;;;;5063522;28;20035;-82
2023/09/17 08:35:24;;;;;;;8.68;5.60;;;20.10;99.90;;;;;;5065477;28;20033;-83
2023/09/17 08:37:50;;;;;;;10.93;5.10;;;20.10;99.90;;;;;;5062593;28;20032;-82
2023/09/17 08:40:19;;;;;;;8.57;5.53;;;20.10;99.90;;;;;;5064120;28;20047;-82
2023/09/17 08:42:45;;;;;;;9.68;5.97;;;20.20;99.90;;;;;;5063594;28;20124;-83
2023/09/17 08:45:12;;;;;;;7.68;5.55;;;20.30;99.90;;;;;;5064984;28;20036;-83
2023/09/17 08:47:40;;;;;;;11.48;5.00;;;20.30;99.90;;;;;;5063432;28;20102;-83
2023/09/17 08:50:09;;;;;;;7.70;5.60;;;20.40;99.90;;;;;;5061366;28;20032;-83
2023/09/17 08:52:40;;;;;;;6.15;4.95;;;20.40;99.90;;;;;;5067434;28;20620;-84
2023/09/17 08:55:08;;;;;;;8.02;4.82;;;20.40;99.90;;;;;;5062038;28;20071;-80
2023/09/17 08:57:37;;;;;;;6.30;4.43;;;20.50;99.90;;;;;;5062896;28;20079;-84
2023/09/17 09:00:09;;;;;;;7.60;4.68;;;20.50;99.90;;;;;;5065726;28;20036;-84
2023/09/17 09:02:54;;;;;;;6.43;5.13;;;20.60;99.90;;;;;;5061630;28;20142;-81
2023/09/17 09:05:25;;;;;;;7.65;4.25;;;20.60;99.90;;;;;;5063750;28;20040;-82
2023/09/17 09:07:51;;;;;;;13.32;4.47;;;20.70;99.90;;;;;;5064887;28;20039;-84
2023/09/17 09:10:18;;;;;;;6.90;5.13;;;20.80;99.90;;;;;;5067054;28;20065;-84
2023/09/17 09:12:47;;;;;;;4.70;4.07;;;20.80;99.90;;;;;;5064671;28;20028;-81
2023/09/17 09:15:13;;;;;;;5.00;3.95;;;20.80;99.90;;;;;;5061942;28;20920;-79
2023/09/17 09:17:41;;;;;;;8.10;4.78;;;20.90;99.90;;;;;;5065185;28;20039;-82
2023/09/17 09:20:11;;;;;;;5.57;3.92;;;20.90;99.90;;;;;;5062233;28;21627;-83
2023/09/17 09:22:43;;;;;;;4.85;4.15;;;20.90;99.90;;;;;;5064416;28;20036;-83
2023/09/17 09:25:12;;;;;;;4.28;3.50;;;21.00;99.90;;;;;;5063105;28;20025;-83
2023/09/17 09:27:37;;;;;;;5.63;4.30;;;21.00;99.90;;;;;;5065554;28;20028;-81
2023/09/17 09:30:07;;;;;;;7.32;4.38;;;21.10;99.90;;;;;;5063696;28;20035;-83
2023/09/17 09:32:33;;;;;;;5.07;3.97;;;21.10;99.90;;;;;;5061642;28;20460;-82
2023/09/17 09:35:01;;;;;;;5.30;4.10;;;21.20;99.90;;;;;;5062272;28;20047;-83
2023/09/17 09:37:31;;;;;;;7.03;3.78;;;21.20;99.90;;;;;;5065492;28;20033;-81
2023/09/17 09:40:01;;;;;;;6.00;4.00;;;21.30;99.90;;;;;;5067798;28;20021;-80
2023/09/17 09:42:27;;;;;;;5.05;3.50;;;21.40;99.90;;;;;;5063610;28;20029;-82
2023/09/17 09:44:55;;;;;;;9.10;4.00;;;21.40;99.90;;;;;;5065456;28;20029;-81
2023/09/17 09:47:24;;;;;;;6.15;4.03;;;21.40;99.90;;;;;;5067829;28;20032;-82
2023/09/17 09:49:50;;;;;;;7.03;3.33;;;21.50;99.90;;;;;;5065063;28;20614;-83
2023/09/17 09:52:17;;;;;;;6.00;3.13;;;21.60;99.90;;;;;;5069695;28;20029;-83
2023/09/17 09:54:44;;;;;;;8.27;4.18;;;21.60;99.90;;;;;;5067562;28;20024;-82
2023/09/17 09:57:18;;;;;;;5.72;3.60;;;21.70;99.90;;;;;;5072031;28;20032;-83
2023/09/17 09:59:46;;;;;;;5.70;3.17;;;21.70;99.90;;;;;;5070349;28;20541;-82
2023/09/17 10:02:15;;;;;;;6.03;3.60;;;21.70;99.90;;;;;;5070899;28;20047;-82
2023/09/17 10:04:42;;;;;;;5.57;3.13;;;21.80;99.90;;;;;;5067464;28;20040;-83
2023/09/17 10:07:08;;;;;;;3.83;2.75;;;21.80;99.90;;;;;;5073557;28;20112;-83
2023/09/17 10:09:37;;;;;;;4.30;3.20;;;21.80;99.90;;;;;;5067472;28;20049;-81
2023/09/17 10:12:03;;;;;;;4.13;3.33;;;21.80;99.90;;;;;;5067096;28;20024;-82
2023/09/17 10:14:32;;;;;;;5.00;3.05;;;21.80;99.90;;;;;;5067238;28;20029;-83
2023/09/17 10:17:00;;;;;;;5.28;3.55;;;21.90;99.90;;;;;;5068790;28;20028;-82
2023/09/17 10:19:31;;;;;;;6.25;3.25;;;22.00;99.90;;;;;;5067272;28;20025;-83
2023/09/17 10:21:57;;;;;;;4.68;3.28;;;22.10;99.90;;;;;;5067668;28;20082;-82
2023/09/17 10:24:24;;;;;;;7.10;3.45;;;22.10;99.90;;;;;;5067688;28;20031;-82
2023/09/17 10:26:51;;;;;;;4.13;3.30;;;22.20;99.90;;;;;;5066612;28;20025;-82
2023/09/17 10:29:21;;;;;;;3.00;2.70;;;22.20;99.90;;;;;;5065598;28;20392;-80
2023/09/17 10:31:50;;;;;;;7.53;3.20;;;22.20;99.90;;;;;;5080878;28;20299;-81
2023/09/17 10:34:17;;;;;;;4.40;3.03;;;22.30;99.90;;;;;;5065173;28;20145;-82
2023/09/17 10:36:43;;;;;;;3.30;2.83;;;22.40;99.90;;;;;;5065635;28;20163;-82
2023/09/17 10:39:15;;;;;;;7.32;2.95;;;22.50;99.90;;;;;;5065942;28;20148;-81
2023/09/17 10:41:41;;;;;;;;;;;22.50;99.90;;;;;;5063762;28;20045;-81
2023/09/17 10:44:07;;;;;;;4.40;2.95;;;22.60;99.90;;;;;;5069195;28;19916;-82
2023/09/17 10:46:36;;;;;;;4.25;3.03;;;22.70;99.90;;;;;;5063970;28;20182;-82
2023/09/17 10:49:04;;;;;;;5.65;2.92;;;22.80;99.90;;;;;;5068678;28;20040;-80
2023/09/17 10:51:30;;;;;;;3.45;2.33;;;22.80;99.90;;;;;;5066802;28;20080;-81
2023/09/17 10:53:58;;;;;;;6.72;3.05;;;22.90;99.90;;;;;;5066004;28;20033;-82
2023/09/17 10:56:25;;;;;;;3.35;3.05;;;22.90;99.90;;;;;;5064405;28;20020;-81
2023/09/17 10:58:52;;;;;;;7.28;2.80;;;23.10;99.90;;;;;;5080594;28;20480;-82
2023/09/17 11:01:30;;;;;;;4.80;2.67;;;23.10;99.90;;;;;;5063492;28;20066;-81
2023/09/17 11:04:10;;;;;;;3.33;2.75;;;23.20;99.90;;;;;;5084751;28;20032;-82
2023/09/17 11:06:39;;;;;;;5.55;3.03;;;23.30;99.90;;;;;;5065058;28;20052;-81
2023/09/17 11:09:05;;;;;;;3.30;2.70;;;23.30;99.90;;;;;;5068698;28;20033;-82
2023/09/17 11:11:36;;;;;;;2.85;2.28;;;23.40;99.90;;;;;;5072872;28;20031;-81
2023/09/17 11:14:05;;;;;;;3.83;2.95;;;23.50;99.90;;;;;;5066562;28;20028;-81
2023/09/17 11:16:32;;;;;;;3.55;2.05;;;23.50;99.90;;;;;;5064484;28;20040;-82
2023/09/17 11:19:18;;;;;;;5.95;2.70;;;23.50;99.90;;;;;;5079670;28;20024;-79
2023/09/17 11:22:09;;;;;;;3.90;2.38;;;23.60;99.90;;;;;;5065921;28;20082;-81
2023/09/17 11:24:36;;;;;;;5.47;2.30;;;23.70;99.90;;;;;;5072713;28;20035;-81
2023/09/17 11:27:11;;;;;;;3.85;2.13;;;23.80;99.90;;;;;;5076950;28;20047;-81
2023/09/17 11:29:43;;;;;;;5.10;2.75;;;23.80;99.90;;;;;;5070269;28;20032;-81
2023/09/17 11:32:11;;;;;;;;;;;23.90;99.90;;;;;;5068757;28;20045;-81
2023/09/17 11:34:43;;;;;;;3.33;2.20;;;23.90;99.90;;;;;;5061780;28;19967;-81
2023/09/17 11:37:09;;;;;;;;;;;23.90;99.90;;;;;;5066431;28;20016;-81
2023/09/17 11:39:38;;;;;;;3.60;2.67;;;23.90;99.90;;;;;;5067772;28;19908;-82
2023/09/17 11:42:12;;;;;;;4.55;2.70;;;24.00;99.90;;;;;;5063737;28;20450;-82
2023/09/17 11:44:38;;;;;;;2.88;2.22;;;24.10;99.90;;;;;;5061313;28;20028;-81
2023/09/17 11:47:05;;;;;;;4.65;3.13;;;24.10;99.90;;;;;;5067495;28;20028;-81
2023/09/17 11:49:32;;;;;;;4.63;2.40;;;24.10;99.90;;;;;;5067241;28;20062;-82
2023/09/17 11:52:00;;;;;;;3.55;2.47;;;24.20;99.90;;;;;;5062699;28;20032;-81
2023/09/17 11:54:33;;;;;;;4.00;2.10;;;24.20;99.90;;;;;;5063900;28;20390;-81
2023/09/17 11:56:59;;;;;;;2.38;2.00;;;24.30;99.90;;;;;;5081029;28;20117;-81
2023/09/17 11:59:28;;;;;;;3.17;2.40;;;24.30;99.90;;;;;;5063764;28;20020;-81
2023/09/17 12:01:57;;;;;;;4.72;2.20;;;24.30;99.90;;;;;;5073951;28;20122;-81
2023/09/17 12:04:29;;;;;;;2.97;2.40;;;24.30;99.90;;;;;;5072470;28;20028;-80
2023/09/17 12:06:55;;;;;;;3.58;1.85;;;24.40;99.90;;;;;;5065359;28;20032;-81
2023/09/17 12:12:08;;;;;;;4.30;2.22;;;24.50;99.90;;;;;;5064376;28;20382;-81
2023/09/17 12:14:34;;;;;;;2.60;2.10;;;24.50;99.90;;;;;;5065022;28;20024;-80
2023/09/17 12:17:03;;;;;;;4.07;2.17;;;24.50;99.90;;;;;;5078906;28;20608;-80
2023/09/17 12:19:30;;;;;;;4.50;2.20;;;24.60;99.90;;;;;;5065307;28;20452;-81
2023/09/17 12:21:58;;;;;;;8.15;2.55;;;24.80;99.90;;;;;;5067102;28;20850;-80
2023/09/17 12:24:48;;;;;;;4.70;2.20;;;25.00;99.90;;;;;;5065390;28;20087;-82
2023/09/17 12:29:58;;;;;;;4.47;1.60;;;25.20;99.90;;;;;;5065049;28;20021;-81
2023/09/17 12:32:26;;;;;;;1.95;1.70;;;25.30;99.90;;;;;;5065395;28;20095;-81
2023/09/17 12:34:55;;;;;;;5.97;1.95;;;25.50;99.90;;;;;;5064628;28;20467;-81
2023/09/17 12:37:25;;;;;;;5.50;2.20;;;25.50;99.90;;;;;;5061689;28;20058;-82
2023/09/17 12:39:52;;;;;;;5.68;1.80;;;25.60;99.90;;;;;;5068099;28;20075;-81
2023/09/17 12:42:21;;;;;;;2.67;1.88;;;25.70;99.90;;;;;;5064958;28;20122;-81
2023/09/17 12:44:47;;;;;;;4.07;1.65;;;25.70;99.90;;;;;;5061532;28;20029;-79